Herd, Oklahoma
Current Conditions -  °F | °C
As of 1:53 AM on Thursday 27 Nov 2014 (Local Time) from KBVO Reporting Station
Clear Clear  
Wind Chill: 20°   Ceiling: Unl
Heat Index: 29°   Visibility: 10mi
Dew Point: 22°   Wind: 10mph
Humidity: 75%   Direction: 10°N
Pressure: 30.48"   Gusts: NA
Location:  36.8094°N, 96.3005°W
Report Text: KBVO 270753Z AUTO 01009KT 10SM CLR M02/M06 A3048 RMK AO2 SLP322 T10171056
Loading
Personal Weather Stations






























Interactive Weather Map New forecast layout! Learn more

10-Day Weather Forecast

Advertisements
Track Severe Weather on mobile